This is the latest recevied weather packets stored in our database for station/object KB5DPX. If no packets are shown the sender has not sent any weather packets the latest 10 day(s).
| Time | Temp. | Humidity | Pressure | Rain* | Wind** | Luminosity | Snow |
|---|---|---|---|---|---|---|---|
| 1777490567 | 6.67° C | 76% | 1014.2 hPa | 0 mm | - | 791 W/m² | - |
| 1777490271 | 6.67° C | 77% | 1014.2 hPa | 0 mm | - | 707 W/m² | - |
| 1777489954 | 6.67° C | 76% | 1014.2 hPa | 0 mm | - | 441 W/m² | - |
| 1777489667 | 6.67° C | 75% | 1014.2 hPa | 0 mm | - | 564 W/m² | - |
| 1777489372 | 6.67° C | 76% | 1014.2 hPa | 0 mm | - | 654 W/m² | - |
| 1777489068 | 6.67° C | 75% | 1014.2 hPa | 0 mm | - | 636 W/m² | - |
| 1777488769 | 6.67° C | 76% | 1014.2 hPa | 0 mm | - | 823 W/m² | - |
| 1777488454 | 6.11° C | 77% | 1014.1 hPa | 0 mm | - | 816 W/m² | - |
| 1777488164 | 6.11° C | 76% | 1014.2 hPa | 0 mm | - | 675 W/m² | - |
| 1777487868 | 6.11° C | 76% | 1014.2 hPa | 0 mm | - | 756 W/m² | - |
| 1777487551 | 6.11° C | 74% | 1014.3 hPa | 0 mm | - | 596 W/m² | - |
| 1777487256 | 6.67° C | 73% | 1014.3 hPa | 0 mm | - | 860 W/m² | - |
| 1777486969 | 6.67° C | 73% | 1014.3 hPa | 0 mm | - | 814 W/m² | - |
| 1777486670 | 6.11° C | 73% | 1014.4 hPa | 0 mm | - | 807 W/m² | - |
| 1777486377 | 6.11° C | 73% | 1014.5 hPa | 0 mm | - | 756 W/m² | - |
| 1777486065 | 6.11° C | 72% | 1014.5 hPa | 0 mm | - | 828 W/m² | - |
| 1777485750 | 6.11° C | 73% | 1014.5 hPa | 0 mm | - | 670 W/m² | - |
| 1777485457 | 6.67° C | 70% | 1014.6 hPa | 0 mm | - | 385 W/m² | - |
| 1777485171 | 6.67° C | 74% | 1014.6 hPa | 0 mm | - | 1013 W/m² | - |
| 1777484857 | 6.11° C | 73% | 1014.6 hPa | 0 mm | - | 721 W/m² | - |
| 1777484571 | 6.11° C | 74% | 1014.6 hPa | 0 mm | - | 802 W/m² | - |
| 1777484271 | 6.11° C | 75% | 1014.7 hPa | 0 mm | - | 1048 W/m² | - |
| 1777483975 | 5.56° C | 75% | 1014.7 hPa | 0 mm | - | 967 W/m² | - |
| 1777483653 | 5.56° C | 76% | 1014.7 hPa | 0 mm | - | 726 W/m² | - |
| 1777483366 | 5.56° C | 76% | 1014.8 hPa | 0 mm | - | 526 W/m² | - |
* Rain latest hour (hover to see other rain measurements)
** Current wind speed in m/s (hover to see current wind gust speed)